createdAt,value
2018-11-11T00:00:01.918Z,989.57
2018-11-11T00:05:02.176Z,989.58
2018-11-11T00:10:01.447Z,989.58
2018-11-11T00:15:01.749Z,989.67
2018-11-11T00:20:02.018Z,989.79
2018-11-11T00:25:01.330Z,989.78
2018-11-11T00:30:01.620Z,989.95
2018-11-11T00:35:01.985Z,989.99
2018-11-11T00:40:02.257Z,990.07
2018-11-11T00:45:01.554Z,989.93
2018-11-11T00:50:01.867Z,990.04
2018-11-11T00:55:02.181Z,990.29
2018-11-11T01:00:01.481Z,990.21
2018-11-11T01:05:01.789Z,990.17
2018-11-11T01:10:02.036Z,989.96
2018-11-11T01:15:01.364Z,990.25
2018-11-11T01:20:01.646Z,990.21
2018-11-11T01:25:01.958Z,990.11
2018-11-11T01:30:02.231Z,990.08
2018-11-11T01:35:01.527Z,990.12
2018-11-11T01:40:01.860Z,990.19
2018-11-11T01:45:02.143Z,990.18
2018-11-11T01:50:01.502Z,990.25
2018-11-11T01:55:01.784Z,990.22
2018-11-11T02:00:02.104Z,990.13
2018-11-11T02:05:01.547Z,990.1
2018-11-11T02:10:01.880Z,990.03
2018-11-11T02:15:02.134Z,990.04
2018-11-11T02:20:01.471Z,990.08
2018-11-11T02:25:01.893Z,990.06
2018-11-11T02:30:02.209Z,990.18
2018-11-11T02:35:01.801Z,989.98
2018-11-11T02:40:02.100Z,990.13
2018-11-11T02:45:01.395Z,990.08
2018-11-11T02:50:01.717Z,989.88
2018-11-11T02:55:02.032Z,989.97
2018-11-11T03:00:01.332Z,990.02
2018-11-11T03:05:02.249Z,989.99
2018-11-11T03:10:01.582Z,989.93
2018-11-11T03:15:01.815Z,989.86
2018-11-11T03:20:02.113Z,989.86
2018-11-11T03:25:01.480Z,989.88
2018-11-11T03:30:01.813Z,989.92
2018-11-11T03:35:02.139Z,989.8
2018-11-11T03:40:01.719Z,989.78
2018-11-11T03:45:02.010Z,989.57
2018-11-11T03:50:01.287Z,989.73
2018-11-11T03:55:01.577Z,989.66
2018-11-11T04:00:01.869Z,989.61
2018-11-11T04:05:02.135Z,989.72
2018-11-11T04:10:01.580Z,989.8
2018-11-11T04:15:01.969Z,990.02
2018-11-11T04:20:02.244Z,990.09
2018-11-11T04:25:01.509Z,990.06
2018-11-11T04:30:01.776Z,989.99
2018-11-11T04:35:02.034Z,990.06
2018-11-11T04:40:01.346Z,990.09
2018-11-11T04:45:01.660Z,989.99
2018-11-11T04:50:01.944Z,990
2018-11-11T04:55:02.202Z,989.95
2018-11-11T05:00:01.525Z,990.07
2018-11-11T05:05:01.869Z,990.1
2018-11-11T05:10:02.134Z,990.11
2018-11-11T05:15:01.435Z,990.07
2018-11-11T05:20:01.728Z,990.02
2018-11-11T05:25:01.986Z,989.98
2018-11-11T05:30:01.286Z,989.85
2018-11-11T05:35:01.778Z,989.89
2018-11-11T05:40:02.034Z,990.02
2018-11-11T05:45:01.288Z,990.15
2018-11-11T05:50:01.872Z,990.31
2018-11-11T05:55:02.123Z,990.33
2018-11-11T06:00:01.411Z,990.31
2018-11-11T06:05:01.721Z,990.3
2018-11-11T06:10:01.966Z,990.3
2018-11-11T06:15:02.223Z,990.25
2018-11-11T06:20:01.505Z,990.21
2018-11-11T06:25:01.743Z,990.23
2018-11-11T06:30:01.988Z,990.2
2018-11-11T06:35:01.366Z,990.26
2018-11-11T06:40:01.664Z,990.34
2018-11-11T06:45:01.934Z,990.51
2018-11-11T06:50:02.195Z,990.53
2018-11-11T06:55:01.480Z,990.58
2018-11-11T07:00:01.802Z,990.67
2018-11-11T07:05:02.076Z,990.8
2018-11-11T07:10:01.407Z,990.85
2018-11-11T07:15:01.713Z,990.9
2018-11-11T07:20:01.994Z,990.93
2018-11-11T07:25:01.302Z,991.12
2018-11-11T07:30:01.664Z,991.21
2018-11-11T07:35:02.002Z,991.21
2018-11-11T07:40:01.277Z,991.36
2018-11-11T07:45:01.554Z,991.51
2018-11-11T07:50:01.875Z,991.49
2018-11-11T07:55:02.644Z,991.51
2018-11-11T08:00:02.022Z,991.66
2018-11-11T08:05:01.330Z,991.7
2018-11-11T08:10:01.687Z,991.78
2018-11-11T08:15:01.973Z,991.81
2018-11-11T08:20:02.201Z,991.7
2018-11-11T08:25:01.466Z,991.62
2018-11-11T08:30:01.819Z,991.55
2018-11-11T08:35:02.086Z,991.62
2018-11-11T08:40:01.382Z,991.71
2018-11-11T08:45:01.713Z,991.66
2018-11-11T08:50:01.991Z,991.75
2018-11-11T08:55:01.349Z,991.83
2018-11-11T09:00:01.575Z,992.01
2018-11-11T09:05:02.401Z,992.22
2018-11-11T09:10:01.715Z,992.19
2018-11-11T09:15:01.992Z,992.27
2018-11-11T09:20:01.283Z,992.22
2018-11-11T09:25:01.600Z,992.13
2018-11-11T09:30:01.889Z,992.1
2018-11-11T09:35:02.306Z,992.17
2018-11-11T09:40:01.598Z,992.23
2018-11-11T09:45:01.951Z,992.24
2018-11-11T09:50:02.196Z,992.26
2018-11-11T09:55:01.493Z,992.34
2018-11-11T10:00:01.801Z,992.23
2018-11-11T10:05:02.105Z,992.24
2018-11-11T10:10:01.418Z,992.25
2018-11-11T10:15:01.705Z,992.29
2018-11-11T10:20:02.234Z,992.32
2018-11-11T10:25:01.545Z,992.43
2018-11-11T10:30:01.855Z,992.58
2018-11-11T10:35:02.097Z,992.68
2018-11-11T10:40:01.424Z,992.67
2018-11-11T10:45:01.726Z,992.74
2018-11-11T10:50:01.987Z,992.81
2018-11-11T10:55:02.238Z,992.75
2018-11-11T11:00:01.767Z,992.81
2018-11-11T11:05:02.145Z,992.85
2018-11-11T11:10:01.454Z,992.9
2018-11-11T11:15:01.789Z,992.83
2018-11-11T11:20:02.053Z,992.98
2018-11-11T11:25:01.332Z,993.1
2018-11-11T11:30:01.606Z,993.1
2018-11-11T11:35:01.932Z,992.87
2018-11-11T11:40:02.165Z,992.89
2018-11-11T11:45:01.503Z,992.91
2018-11-11T11:50:02.175Z,992.81
2018-11-11T11:55:01.511Z,992.68
2018-11-11T12:00:01.822Z,992.65
2018-11-11T12:05:02.066Z,992.68
2018-11-11T12:10:01.350Z,992.75
2018-11-11T12:15:01.712Z,992.86
2018-11-11T12:20:01.991Z,992.99
2018-11-11T12:25:02.240Z,993.03
2018-11-11T12:30:01.489Z,993.23
2018-11-11T12:35:01.949Z,993.26
2018-11-11T12:40:03.061Z,993.26
2018-11-11T12:45:01.500Z,993.26
2018-11-11T12:50:01.892Z,993.3
2018-11-11T12:55:02.198Z,993.29
2018-11-11T13:00:01.487Z,993.37
2018-11-11T13:05:01.761Z,993.38
2018-11-11T13:10:02.016Z,993.41
2018-11-11T13:15:01.408Z,993.39
2018-11-11T13:20:01.695Z,993.34
2018-11-11T13:25:01.968Z,993.36
2018-11-11T13:30:02.261Z,993.4
2018-11-11T13:35:01.600Z,993.28
2018-11-11T13:40:01.887Z,993.38
2018-11-11T13:45:02.131Z,993.28
2018-11-11T13:50:01.461Z,993.42
2018-11-11T13:55:01.755Z,993.43
2018-11-11T14:00:02.009Z,993.48
2018-11-11T14:05:01.339Z,993.45
2018-11-11T14:10:01.689Z,993.47
2018-11-11T14:15:01.967Z,993.58
2018-11-11T14:20:02.262Z,993.64
2018-11-11T14:25:01.572Z,993.76
2018-11-11T14:30:01.892Z,993.72
2018-11-11T14:35:01.420Z,993.75
2018-11-11T14:40:02.339Z,993.72
2018-11-11T14:45:01.735Z,993.72
2018-11-11T14:50:02.050Z,993.77
2018-11-11T14:55:01.385Z,993.69
2018-11-11T15:00:01.740Z,993.64
2018-11-11T15:05:02.024Z,993.7
2018-11-11T15:10:01.357Z,993.7
2018-11-11T15:15:01.648Z,993.77
2018-11-11T15:20:02.733Z,993.7
2018-11-11T15:25:02.249Z,993.61
2018-11-11T15:30:01.557Z,993.84
2018-11-11T15:35:01.872Z,993.98
2018-11-11T15:40:02.121Z,994.08
2018-11-11T15:45:01.447Z,994.15
2018-11-11T15:50:01.755Z,994.17
2018-11-11T15:55:02.014Z,994.32
2018-11-11T16:00:01.288Z,993.97
2018-11-11T16:05:01.603Z,993.77
2018-11-11T16:10:01.905Z,994.04
2018-11-11T16:15:02.157Z,994.22
2018-11-11T16:20:01.561Z,994.27
2018-11-11T16:25:01.933Z,993.84
2018-11-11T16:30:02.168Z,993.89
2018-11-11T16:35:01.559Z,994.1
2018-11-11T16:40:01.844Z,994
2018-11-11T16:45:02.239Z,993.75
2018-11-11T16:50:01.539Z,993.9
2018-11-11T16:55:02.003Z,993.89
2018-11-11T17:00:01.332Z,993.87
2018-11-11T17:05:01.661Z,993.95
2018-11-11T17:10:01.934Z,994.16
2018-11-11T17:15:02.167Z,994.34
2018-11-11T17:20:01.966Z,994.42
2018-11-11T17:25:02.252Z,994.65
2018-11-11T17:30:01.846Z,994.55
2018-11-11T17:35:02.251Z,994.71
2018-11-11T17:40:01.776Z,994.5
2018-11-11T17:45:02.051Z,994.79
2018-11-11T17:50:01.306Z,995
2018-11-11T17:55:01.607Z,994.86
2018-11-11T18:00:01.916Z,994.95
2018-11-11T18:05:02.214Z,995.08
2018-11-11T18:10:01.513Z,995.17
2018-11-11T18:15:01.819Z,995.16
2018-11-11T18:20:02.087Z,995.24
2018-11-11T18:25:01.309Z,995.14
2018-11-11T18:30:01.579Z,995.25
2018-11-11T18:35:01.885Z,995.3
2018-11-11T18:40:02.474Z,995.44
2018-11-11T18:45:01.856Z,995.37
2018-11-11T18:50:02.094Z,995.17
2018-11-11T18:55:01.365Z,995.13
2018-11-11T19:00:01.818Z,995.28
2018-11-11T19:05:02.105Z,995.55
2018-11-11T19:10:01.830Z,995.39
2018-11-11T19:15:02.232Z,995.5
2018-11-11T19:20:01.528Z,995.35
2018-11-11T19:25:01.939Z,995.43
2018-11-11T19:30:02.179Z,995.59
2018-11-11T19:35:01.556Z,995.74
2018-11-11T19:40:01.857Z,995.75
2018-11-11T19:45:02.130Z,995.79
2018-11-11T19:50:01.424Z,995.72
2018-11-11T19:55:01.754Z,995.67
2018-11-11T20:00:02.035Z,995.64
2018-11-11T20:05:01.362Z,995.77
2018-11-11T20:10:01.656Z,995.86
2018-11-11T20:15:01.933Z,996.06
2018-11-11T20:20:02.165Z,996.19
2018-11-11T20:25:01.452Z,996.29
2018-11-11T20:30:01.757Z,996.25
2018-11-11T20:35:02.305Z,996.2
2018-11-11T20:40:01.613Z,996.29
2018-11-11T20:45:01.845Z,996.44
2018-11-11T20:50:02.107Z,996.44
2018-11-11T20:55:01.357Z,996.6
2018-11-11T21:00:01.819Z,996.65
2018-11-11T21:05:02.067Z,996.74
2018-11-11T21:10:01.351Z,996.79
2018-11-11T21:15:01.836Z,996.75
2018-11-11T21:20:02.064Z,996.69
2018-11-11T21:25:01.285Z,996.68
2018-11-11T21:30:01.555Z,996.75
2018-11-11T21:35:01.843Z,996.93
2018-11-11T21:40:02.075Z,997.06
2018-11-11T21:45:01.306Z,996.86
2018-11-11T21:50:01.622Z,996.96
2018-11-11T21:55:01.886Z,997.06
2018-11-11T22:00:02.142Z,997.05
2018-11-11T22:05:01.457Z,996.97
2018-11-11T22:10:02.429Z,996.95
2018-11-11T22:15:01.794Z,996.96
2018-11-11T22:20:02.028Z,997.14
2018-11-11T22:25:01.314Z,997.35
2018-11-11T22:30:01.600Z,997.33
2018-11-11T22:35:01.851Z,997.41
2018-11-11T22:40:02.085Z,997.35
2018-11-11T22:45:01.306Z,997.43
2018-11-11T22:50:01.551Z,997.43
2018-11-11T22:55:01.777Z,997.53
2018-11-11T23:00:02.265Z,997.51
2018-11-11T23:05:01.543Z,997.39
2018-11-11T23:10:01.867Z,997.32
2018-11-11T23:15:02.112Z,997.43
2018-11-11T23:20:01.334Z,997.52
2018-11-11T23:25:01.567Z,997.49
2018-11-11T23:30:01.844Z,997.5
2018-11-11T23:35:02.089Z,997.49
2018-11-11T23:40:01.318Z,997.62
2018-11-11T23:45:01.543Z,997.72
2018-11-11T23:50:01.826Z,997.8
2018-11-11T23:55:02.080Z,997.69
